Terminal Aerodrome Forecast
Issued by NWS

Current Version | Previous Version | Graphics & Text | Print | Product List | Glossary Off
Versions: 1 2 3 4 5 6 7 8 9 10 11 12 13 14 15

000
FTUS41 KPBZ 181130
TAFMGW
TAF
KMGW 181130Z 1812/1912 22006KT P6SM OVC008
     FM182100 23007KT P6SM -DZ OVC010
     FM190600 23008KT P6SM BKN015=

USA.gov is the U.S. government's official web portal to all federal, state and local government web resources and services.